createdAt,value
2018-11-25T00:01:29.376Z,30.53
2018-11-25T00:04:00.838Z,30.67
2018-11-25T00:06:32.376Z,33.57
2018-11-25T00:09:04.273Z,31.90
2018-11-25T00:11:35.766Z,32.87
2018-11-25T00:14:07.193Z,31.17
2018-11-25T00:16:38.820Z,33.37
2018-11-25T00:19:10.344Z,32.07
2018-11-25T00:21:41.840Z,32.03
2018-11-25T00:24:13.261Z,31.17
2018-11-25T00:26:44.657Z,31.77
2018-11-25T00:29:16.067Z,30.43
2018-11-25T00:31:47.526Z,32.87
2018-11-25T00:34:19.004Z,31.50
2018-11-25T00:36:50.468Z,31.07
2018-11-25T00:39:21.940Z,31.93
2018-11-25T00:41:53.299Z,33.37
2018-11-25T00:44:24.715Z,30.43
2018-11-25T00:46:56.137Z,32.43
2018-11-25T00:49:27.604Z,33.00
2018-11-25T00:51:59.061Z,29.60
2018-11-25T00:54:30.484Z,30.67
2018-11-25T00:57:02.021Z,32.93
2018-11-25T00:59:33.527Z,30.13
2018-11-25T01:02:05.218Z,30.43
2018-11-25T01:04:36.735Z,31.70
2018-11-25T01:07:08.146Z,30.20
2018-11-25T01:09:39.683Z,31.27
2018-11-25T01:12:11.125Z,31.17
2018-11-25T01:14:42.603Z,30.33
2018-11-25T01:17:14.037Z,32.87
2018-11-25T01:19:45.488Z,33.07
2018-11-25T01:22:16.852Z,32.13
2018-11-25T01:24:48.445Z,32.37
2018-11-25T01:27:19.998Z,30.27
2018-11-25T01:29:52.163Z,31.77
2018-11-25T01:32:23.844Z,30.87
2018-11-25T01:35:00.861Z,30.87
2018-11-25T01:37:26.821Z,30.40
2018-11-25T01:39:58.367Z,31.80
2018-11-25T01:42:29.730Z,31.83
2018-11-25T01:45:01.240Z,31.90
2018-11-25T01:47:32.783Z,30.73
2018-11-25T01:50:04.476Z,31.90
2018-11-25T01:52:36.017Z,31.53
2018-11-25T01:55:11.018Z,30.53
2018-11-25T01:57:42.475Z,30.33
2018-11-25T02:00:23.511Z,30.63
2018-11-25T02:02:54.951Z,30.53
2018-11-25T02:05:26.484Z,30.37
2018-11-25T02:07:58.205Z,30.27
2018-11-25T02:10:29.777Z,29.70
2018-11-25T02:13:01.217Z,30.87
2018-11-25T02:15:32.732Z,30.60
2018-11-25T02:18:04.303Z,30.03
2018-11-25T02:20:35.924Z,30.33
2018-11-25T02:23:07.425Z,31.17
2018-11-25T02:25:38.874Z,30.70
2018-11-25T02:28:10.377Z,31.63
2018-11-25T02:30:41.901Z,31.77
2018-11-25T02:33:13.386Z,30.00
2018-11-25T02:35:44.786Z,30.40
2018-11-25T02:38:16.299Z,31.40
2018-11-25T02:40:47.789Z,31.90
2018-11-25T02:43:19.174Z,30.13
2018-11-25T02:45:50.600Z,31.83
2018-11-25T02:48:22.029Z,31.23
2018-11-25T02:50:53.477Z,30.30
2018-11-25T02:53:24.875Z,31.07
2018-11-25T02:55:56.562Z,30.63
2018-11-25T02:58:28.007Z,29.90
2018-11-25T03:00:59.838Z,30.53
2018-11-25T03:03:31.305Z,30.43
2018-11-25T03:06:02.866Z,29.57
2018-11-25T03:08:34.270Z,30.53
2018-11-25T03:11:05.735Z,30.57
2018-11-25T03:13:37.155Z,32.27
2018-11-25T03:16:08.586Z,32.23
2018-11-25T03:18:40.038Z,31.10
2018-11-25T03:21:11.550Z,31.23
2018-11-25T03:23:42.946Z,30.53
2018-11-25T03:26:14.457Z,32.73
2018-11-25T03:28:45.879Z,31.00
2018-11-25T03:31:17.386Z,30.37
2018-11-25T03:33:48.741Z,30.27
2018-11-25T03:36:20.194Z,30.57
2018-11-25T03:38:51.682Z,28.77
2018-11-25T03:41:23.215Z,29.27
2018-11-25T03:43:54.685Z,29.70
2018-11-25T03:46:26.143Z,30.50
2018-11-25T03:48:57.583Z,29.57
2018-11-25T03:51:29.058Z,29.10
2018-11-25T03:54:00.515Z,29.67
2018-11-25T03:56:32.030Z,29.83
2018-11-25T03:59:03.445Z,29.13
2018-11-25T04:01:34.860Z,30.10
2018-11-25T04:04:07.283Z,30.30
2018-11-25T04:06:38.785Z,29.80
2018-11-25T04:09:10.631Z,29.13
2018-11-25T04:11:42.147Z,30.53
2018-11-25T04:14:13.574Z,29.43
2018-11-25T04:16:44.968Z,30.77
2018-11-25T04:19:16.445Z,29.87
2018-11-25T04:21:47.842Z,28.80
2018-11-25T04:24:19.388Z,29.63
2018-11-25T04:26:50.785Z,29.90
2018-11-25T04:29:22.254Z,30.17
2018-11-25T04:31:53.622Z,29.97
2018-11-25T04:34:25.178Z,29.53
2018-11-25T04:37:03.269Z,28.73
2018-11-25T04:39:34.672Z,29.07
2018-11-25T04:42:06.365Z,28.57
2018-11-25T04:44:37.753Z,29.37
2018-11-25T04:47:09.167Z,30.27
2018-11-25T04:49:40.582Z,28.63
2018-11-25T04:52:11.978Z,30.20
2018-11-25T04:54:43.447Z,29.13
2018-11-25T04:57:14.878Z,30.73
2018-11-25T04:59:46.311Z,30.00
2018-11-25T05:02:17.748Z,29.23
2018-11-25T05:04:49.252Z,28.60
2018-11-25T05:07:20.653Z,30.03
2018-11-25T05:09:52.081Z,30.00
2018-11-25T05:12:23.515Z,29.57
2018-11-25T05:14:54.963Z,29.23
2018-11-25T05:17:26.369Z,29.97
2018-11-25T05:19:57.811Z,28.90
2018-11-25T05:22:29.317Z,29.27
2018-11-25T05:25:00.755Z,27.97
2018-11-25T05:27:32.205Z,29.57
2018-11-25T05:30:03.850Z,28.47
2018-11-25T05:32:35.285Z,29.50
2018-11-25T05:35:09.426Z,28.23
2018-11-25T05:37:40.985Z,29.13
2018-11-25T05:40:13.850Z,29.13
2018-11-25T05:42:45.479Z,27.90
2018-11-25T05:45:19.254Z,27.23
2018-11-25T05:47:50.738Z,28.20
2018-11-25T05:50:22.110Z,28.97
2018-11-25T05:52:53.569Z,30.27
2018-11-25T05:55:24.937Z,28.80
2018-11-25T05:57:56.371Z,29.47
2018-11-25T06:00:29.800Z,29.70
2018-11-25T06:03:01.947Z,29.97
2018-11-25T06:05:33.403Z,30.23
2018-11-25T06:08:04.908Z,30.90
2018-11-25T06:10:36.443Z,30.00
2018-11-25T06:13:07.906Z,30.07
2018-11-25T06:15:39.305Z,40.67
2018-11-25T06:18:10.803Z,35.77
2018-11-25T06:20:42.279Z,29.70
2018-11-25T06:23:14.174Z,31.07
2018-11-25T06:25:45.538Z,30.43
2018-11-25T06:28:16.966Z,30.23
2018-11-25T06:30:48.589Z,30.43
2018-11-25T06:33:20.237Z,30.30
2018-11-25T06:35:51.736Z,32.27
2018-11-25T06:38:24.382Z,32.50
2018-11-25T06:40:54.656Z,31.33
2018-11-25T06:43:26.255Z,31.60
2018-11-25T06:45:57.695Z,30.40
2018-11-25T06:48:29.249Z,30.17
2018-11-25T06:51:00.671Z,30.67
2018-11-25T06:53:32.143Z,30.00
2018-11-25T06:56:03.548Z,31.70
2018-11-25T06:58:34.981Z,32.00
2018-11-25T07:01:06.769Z,31.47
2018-11-25T07:03:38.255Z,32.07
2018-11-25T07:06:09.729Z,33.47
2018-11-25T07:08:41.150Z,30.27
2018-11-25T07:11:12.607Z,30.50
2018-11-25T07:13:44.131Z,30.07
2018-11-25T07:16:15.587Z,32.00
2018-11-25T07:18:47.194Z,33.43
2018-11-25T07:21:18.746Z,32.83
2018-11-25T07:23:50.190Z,28.83
2018-11-25T07:26:21.566Z,31.27
2018-11-25T07:28:52.964Z,30.37
2018-11-25T07:31:24.340Z,31.57
2018-11-25T07:33:55.885Z,31.33
2018-11-25T07:36:27.356Z,31.77
2018-11-25T07:38:58.889Z,32.43
2018-11-25T07:41:30.423Z,29.40
2018-11-25T07:44:01.918Z,30.33
2018-11-25T07:46:33.331Z,30.90
2018-11-25T07:49:04.878Z,33.23
2018-11-25T07:51:36.305Z,51.47
2018-11-25T07:54:07.821Z,42.50
2018-11-25T07:56:39.353Z,33.30
2018-11-25T07:59:10.741Z,31.33
2018-11-25T08:01:42.184Z,31.60
2018-11-25T08:04:13.696Z,30.87
2018-11-25T08:06:45.254Z,29.93
2018-11-25T08:09:16.697Z,30.07
2018-11-25T08:11:48.229Z,31.13
2018-11-25T08:14:19.741Z,31.20
2018-11-25T08:16:51.242Z,30.97
2018-11-25T08:19:22.834Z,31.07
2018-11-25T08:21:54.356Z,73.80
2018-11-25T08:24:25.914Z,37.37
2018-11-25T08:26:57.394Z,30.53
2018-11-25T08:29:28.802Z,29.47
2018-11-25T08:32:00.483Z,31.30
2018-11-25T08:34:31.993Z,28.43
2018-11-25T08:37:03.399Z,30.40
2018-11-25T08:39:34.956Z,32.50
2018-11-25T08:42:06.764Z,74.80
2018-11-25T08:44:38.197Z,43.70
2018-11-25T08:47:09.737Z,32.20
2018-11-25T08:49:41.290Z,31.67
2018-11-25T08:52:12.720Z,32.10
2018-11-25T08:54:44.196Z,33.20
2018-11-25T08:57:15.800Z,32.83
2018-11-25T08:59:47.283Z,31.57
2018-11-25T09:02:18.766Z,31.40
2018-11-25T09:04:50.280Z,32.47
2018-11-25T09:07:21.707Z,32.50
2018-11-25T09:09:53.167Z,33.87
2018-11-25T09:12:24.633Z,32.17
2018-11-25T09:14:56.045Z,34.70
2018-11-25T09:17:27.473Z,35.13
2018-11-25T09:19:58.880Z,33.83
2018-11-25T09:22:30.299Z,32.97
2018-11-25T09:25:01.796Z,50.67
2018-11-25T09:27:33.301Z,40.47
2018-11-25T09:30:05.914Z,35.43
2018-11-25T09:32:37.404Z,36.63
2018-11-25T09:35:08.988Z,39.70
2018-11-25T09:37:40.402Z,36.03
2018-11-25T09:40:21.118Z,34.70
2018-11-25T09:42:52.570Z,34.27
2018-11-25T09:45:24.047Z,33.00
2018-11-25T09:47:55.513Z,33.63
2018-11-25T09:50:27.033Z,32.47
2018-11-25T09:52:58.556Z,34.27
2018-11-25T09:55:29.974Z,34.17
2018-11-25T09:58:02.241Z,33.03
2018-11-25T10:00:35.239Z,32.83
2018-11-25T10:03:08.470Z,34.97
2018-11-25T10:05:40.997Z,33.77
2018-11-25T10:08:12.484Z,33.30
2018-11-25T10:10:43.971Z,32.17
2018-11-25T10:13:15.450Z,35.30
2018-11-25T10:15:46.896Z,33.60
2018-11-25T10:18:18.346Z,33.13
2018-11-25T10:20:49.858Z,32.60
2018-11-25T10:23:21.299Z,32.37
2018-11-25T10:25:52.682Z,33.23
2018-11-25T10:28:24.166Z,33.47
2018-11-25T10:30:55.580Z,33.60
2018-11-25T10:33:27.003Z,34.27
2018-11-25T10:35:58.514Z,34.80
2018-11-25T10:38:29.994Z,33.63
2018-11-25T10:41:01.456Z,34.13
2018-11-25T10:43:32.972Z,33.73
2018-11-25T10:46:04.434Z,33.03
2018-11-25T10:48:35.909Z,31.50
2018-11-25T10:51:07.530Z,32.73
2018-11-25T10:53:39.005Z,33.80
2018-11-25T10:56:10.560Z,33.83
2018-11-25T10:58:42.009Z,34.23
2018-11-25T11:01:18.573Z,33.53
2018-11-25T11:03:56.390Z,33.60
2018-11-25T11:06:33.625Z,34.13
2018-11-25T11:09:07.215Z,33.10
2018-11-25T11:11:38.724Z,33.53
2018-11-25T11:14:10.152Z,34.40
2018-11-25T11:16:41.684Z,33.73
2018-11-25T11:19:13.123Z,35.37
2018-11-25T11:21:44.629Z,34.83
2018-11-25T11:24:16.139Z,35.17
2018-11-25T11:26:48.722Z,36.67
2018-11-25T11:29:19.086Z,35.80
2018-11-25T11:31:50.656Z,35.17
2018-11-25T11:34:22.119Z,35.63
2018-11-25T11:36:53.573Z,34.30
2018-11-25T11:39:25.061Z,35.90
2018-11-25T11:41:56.444Z,35.33
2018-11-25T11:44:27.911Z,35.77
2018-11-25T11:46:59.350Z,48.07
2018-11-25T11:49:30.938Z,38.10
2018-11-25T11:52:02.397Z,35.70
2018-11-25T11:54:33.932Z,36.17
2018-11-25T11:57:05.433Z,35.10
2018-11-25T11:59:36.901Z,33.23
2018-11-25T12:02:08.468Z,34.03
2018-11-25T12:04:39.908Z,36.27
2018-11-25T12:07:11.522Z,36.33
2018-11-25T12:09:42.969Z,35.37
2018-11-25T12:12:14.417Z,34.33
2018-11-25T12:14:45.863Z,33.20
2018-11-25T12:17:17.225Z,35.40
2018-11-25T12:19:48.635Z,36.47
2018-11-25T12:22:20.129Z,37.27
2018-11-25T12:24:51.685Z,34.40
2018-11-25T12:27:23.223Z,34.73
2018-11-25T12:29:54.808Z,34.73
2018-11-25T12:32:26.287Z,34.70
2018-11-25T12:34:57.806Z,36.03
2018-11-25T12:37:35.744Z,34.27
2018-11-25T12:40:00.926Z,34.67
2018-11-25T12:42:32.322Z,34.50
2018-11-25T12:45:03.870Z,35.13
2018-11-25T12:47:35.479Z,35.57
2018-11-25T12:50:09.420Z,36.40
2018-11-25T12:52:41.040Z,35.73
2018-11-25T12:55:14.644Z,36.37
2018-11-25T12:57:46.202Z,34.37
2018-11-25T13:00:51.440Z,38.00
2018-11-25T13:03:23.066Z,34.00
2018-11-25T13:05:54.558Z,36.03
2018-11-25T13:08:26.128Z,35.90
2018-11-25T13:10:57.715Z,35.00
2018-11-25T13:13:29.271Z,33.67
2018-11-25T13:16:00.739Z,34.63
2018-11-25T13:18:32.332Z,35.70
2018-11-25T13:21:03.957Z,34.53
2018-11-25T13:23:38.834Z,35.93
2018-11-25T13:26:07.663Z,35.57
2018-11-25T13:28:39.208Z,35.50
2018-11-25T13:31:10.716Z,34.50
2018-11-25T13:33:42.213Z,34.53
2018-11-25T13:36:13.796Z,34.83
2018-11-25T13:38:45.289Z,38.10
2018-11-25T13:41:16.698Z,39.53
2018-11-25T13:43:48.254Z,38.47
2018-11-25T13:46:19.769Z,37.20
2018-11-25T13:48:51.498Z,40.30
2018-11-25T13:51:22.970Z,38.10
2018-11-25T13:53:58.693Z,38.57
2018-11-25T13:56:30.073Z,39.90
2018-11-25T13:59:01.641Z,41.07
2018-11-25T14:01:33.108Z,40.63
2018-11-25T14:04:04.745Z,41.67
2018-11-25T14:06:36.375Z,37.73
2018-11-25T14:09:15.197Z,40.00
2018-11-25T14:11:46.709Z,41.00
2018-11-25T14:14:18.286Z,41.43
2018-11-25T14:16:49.784Z,41.60
2018-11-25T14:19:21.576Z,38.63
2018-11-25T14:21:53.472Z,39.27
2018-11-25T14:24:25.203Z,38.73
2018-11-25T14:26:59.550Z,40.37
2018-11-25T14:29:31.374Z,38.37
2018-11-25T14:32:03.127Z,39.50
2018-11-25T14:34:34.983Z,40.27
2018-11-25T14:37:07.051Z,38.77
2018-11-25T14:39:38.660Z,39.50
2018-11-25T14:42:10.031Z,39.70
2018-11-25T14:44:41.661Z,40.13
2018-11-25T14:47:13.225Z,38.33
2018-11-25T14:49:45.084Z,37.67
2018-11-25T14:52:16.574Z,36.40
2018-11-25T14:54:51.332Z,38.73
2018-11-25T14:57:19.529Z,39.43
2018-11-25T14:59:50.938Z,40.57
2018-11-25T15:02:22.376Z,38.87
2018-11-25T15:04:53.872Z,40.30
2018-11-25T15:07:25.416Z,39.73
2018-11-25T15:09:57.041Z,39.13
2018-11-25T15:12:28.534Z,45.60
2018-11-25T15:15:00.152Z,49.83
2018-11-25T15:17:31.619Z,41.70
2018-11-25T15:20:03.087Z,38.83
2018-11-25T15:22:34.691Z,39.50
2018-11-25T15:25:08.156Z,40.73
2018-11-25T15:27:39.648Z,42.17
2018-11-25T15:30:12.331Z,40.60
2018-11-25T15:32:43.778Z,38.20
2018-11-25T15:35:15.273Z,39.63
2018-11-25T15:37:48.844Z,42.97
2018-11-25T15:40:24.590Z,42.67
2018-11-25T15:42:56.004Z,46.03
2018-11-25T15:45:27.460Z,39.93
2018-11-25T15:48:31.934Z,43.13
2018-11-25T15:51:03.403Z,40.30
2018-11-25T15:53:34.937Z,39.23
2018-11-25T15:56:09.748Z,41.77
2018-11-25T15:58:41.147Z,40.33
2018-11-25T16:01:12.612Z,39.20
2018-11-25T16:03:44.127Z,42.20
2018-11-25T16:06:22.002Z,40.50
2018-11-25T16:08:53.420Z,41.47
2018-11-25T16:11:25.036Z,40.00
2018-11-25T16:13:56.451Z,40.33
2018-11-25T16:16:27.881Z,38.43
2018-11-25T16:18:59.281Z,39.60
2018-11-25T16:21:30.836Z,40.30
2018-11-25T16:24:02.195Z,41.53
2018-11-25T16:26:36.263Z,40.77
2018-11-25T16:29:24.621Z,39.77
2018-11-25T16:31:56.237Z,37.50
2018-11-25T16:34:27.592Z,39.13
2018-11-25T16:36:59.109Z,39.17
2018-11-25T16:39:30.573Z,37.40
2018-11-25T16:42:01.991Z,43.20
2018-11-25T16:44:33.357Z,40.77
2018-11-25T16:47:04.846Z,39.33
2018-11-25T16:49:36.389Z,42.97
2018-11-25T16:52:07.945Z,41.23
2018-11-25T16:54:39.436Z,47.73
2018-11-25T16:57:10.849Z,43.13
2018-11-25T16:59:42.258Z,37.80
2018-11-25T17:02:13.665Z,36.63
2018-11-25T17:04:45.151Z,38.93
2018-11-25T17:07:16.595Z,36.63
2018-11-25T17:09:48.084Z,36.00
2018-11-25T17:12:19.515Z,45.37
2018-11-25T17:14:51.054Z,42.40
2018-11-25T17:17:22.446Z,44.10
2018-11-25T17:19:53.867Z,42.40
2018-11-25T17:22:25.353Z,41.03
2018-11-25T17:24:56.845Z,40.00
2018-11-25T17:27:28.273Z,42.67
2018-11-25T17:29:59.675Z,40.80
2018-11-25T17:32:31.222Z,42.20
2018-11-25T17:35:02.674Z,40.60
2018-11-25T17:37:34.292Z,38.97
2018-11-25T17:40:06.687Z,42.37
2018-11-25T17:42:38.357Z,41.97
2018-11-25T17:45:12.774Z,42.97
2018-11-25T17:47:44.492Z,38.47
2018-11-25T17:50:23.198Z,43.53
2018-11-25T17:52:54.680Z,40.03
2018-11-25T17:55:28.661Z,38.63
2018-11-25T17:58:00.236Z,40.70
2018-11-25T18:00:40.203Z,39.50
2018-11-25T18:03:20.663Z,41.20
2018-11-25T18:05:53.334Z,40.93
2018-11-25T18:08:24.950Z,39.47
2018-11-25T18:10:56.461Z,40.07
2018-11-25T18:13:30.502Z,43.17
2018-11-25T18:16:04.037Z,38.97
2018-11-25T18:18:41.905Z,39.80
2018-11-25T18:21:19.350Z,38.10
2018-11-25T18:23:50.842Z,41.23
2018-11-25T18:26:22.361Z,40.70
2018-11-25T18:28:53.831Z,49.50
2018-11-25T18:31:25.365Z,42.63
2018-11-25T18:33:56.953Z,42.13
2018-11-25T18:36:28.442Z,41.83
2018-11-25T18:38:59.906Z,41.43
2018-11-25T18:41:32.464Z,39.40
2018-11-25T18:44:04.049Z,37.57
2018-11-25T18:46:35.686Z,40.17
2018-11-25T18:49:10.606Z,41.63
2018-11-25T18:51:42.069Z,41.27
2018-11-25T18:54:13.479Z,41.20
2018-11-25T18:56:45.010Z,39.03
2018-11-25T18:59:16.490Z,40.33
2018-11-25T19:02:05.476Z,39.23
2018-11-25T19:04:37.006Z,42.67
2018-11-25T19:07:08.483Z,37.57
2018-11-25T19:09:39.933Z,38.07
2018-11-25T19:12:11.458Z,38.60
2018-11-25T19:14:42.970Z,39.33
2018-11-25T19:17:14.432Z,40.47
2018-11-25T19:19:45.903Z,40.03
2018-11-25T19:22:17.401Z,38.13
2018-11-25T19:24:48.835Z,36.40
2018-11-25T19:27:20.230Z,39.50
2018-11-25T19:29:51.721Z,39.77
2018-11-25T19:32:23.123Z,39.20
2018-11-25T19:34:54.853Z,39.90
2018-11-25T19:37:26.452Z,42.40
2018-11-25T19:39:57.935Z,41.97
2018-11-25T19:42:29.603Z,41.23
2018-11-25T19:45:01.192Z,40.63
2018-11-25T19:47:32.991Z,41.80
2018-11-25T19:50:06.524Z,39.27
2018-11-25T19:52:38.561Z,36.43
2018-11-25T19:55:10.409Z,36.20
2018-11-25T19:57:42.173Z,36.83
2018-11-25T20:00:17.765Z,38.33
2018-11-25T20:02:49.434Z,37.00
2018-11-25T20:05:20.993Z,38.27
2018-11-25T20:07:52.489Z,37.27
2018-11-25T20:10:25.685Z,36.03
2018-11-25T20:12:58.927Z,36.27
2018-11-25T20:15:30.490Z,35.07
2018-11-25T20:18:02.182Z,35.90
2018-11-25T20:20:33.770Z,35.90
2018-11-25T20:23:06.464Z,36.00
2018-11-25T20:25:38.017Z,36.27
2018-11-25T20:28:09.712Z,35.07
2018-11-25T20:30:41.588Z,35.33
2018-11-25T20:33:18.286Z,34.93
2018-11-25T20:35:49.969Z,35.80
2018-11-25T20:38:26.748Z,35.83
2018-11-25T20:40:58.376Z,34.47
2018-11-25T20:43:29.998Z,35.20
2018-11-25T20:46:06.681Z,36.83
2018-11-25T20:48:38.186Z,38.57
2018-11-25T20:51:09.622Z,36.57
2018-11-25T20:53:46.227Z,40.27
2018-11-25T20:56:17.708Z,37.63
2018-11-25T20:58:49.178Z,36.87
2018-11-25T21:01:20.631Z,36.63
2018-11-25T21:03:52.391Z,37.33
2018-11-25T21:06:23.910Z,37.43
2018-11-25T21:08:55.329Z,38.40
2018-11-25T21:11:26.913Z,37.23
2018-11-25T21:13:58.388Z,39.27
2018-11-25T21:16:29.875Z,39.30
2018-11-25T21:19:01.420Z,37.27
2018-11-25T21:21:33.002Z,39.10
2018-11-25T21:24:04.505Z,37.30
2018-11-25T21:26:35.961Z,34.63
2018-11-25T21:29:07.632Z,39.90
2018-11-25T21:31:39.252Z,37.27
2018-11-25T21:34:10.831Z,36.93
2018-11-25T21:36:42.339Z,36.90
2018-11-25T21:39:13.873Z,37.13
2018-11-25T21:41:45.338Z,37.30
2018-11-25T21:44:16.794Z,39.13
2018-11-25T21:46:48.259Z,38.83
2018-11-25T21:49:19.741Z,37.43
2018-11-25T21:51:51.308Z,36.37
2018-11-25T21:54:22.804Z,37.63
2018-11-25T21:56:54.288Z,37.67
2018-11-25T21:59:25.714Z,39.87
2018-11-25T22:01:57.150Z,37.00
2018-11-25T22:04:34.895Z,38.80
2018-11-25T22:07:06.643Z,38.10
2018-11-25T22:09:38.198Z,37.73
2018-11-25T22:12:09.650Z,37.67
2018-11-25T22:14:41.169Z,38.37
2018-11-25T22:17:12.647Z,36.97
2018-11-25T22:19:44.240Z,38.97
2018-11-25T22:22:15.794Z,40.80
2018-11-25T22:24:47.271Z,40.07
2018-11-25T22:27:18.726Z,39.20
2018-11-25T22:29:50.242Z,38.90
2018-11-25T22:32:22.986Z,37.33
2018-11-25T22:34:54.566Z,38.80
2018-11-25T22:37:26.029Z,40.57
2018-11-25T22:39:57.515Z,38.13
2018-11-25T22:42:33.026Z,37.80
2018-11-25T22:45:05.397Z,37.43
2018-11-25T22:47:37.031Z,38.63
2018-11-25T22:50:11.890Z,36.37
2018-11-25T22:52:43.465Z,38.40
2018-11-25T22:55:25.128Z,37.40
2018-11-25T22:57:56.645Z,35.63
2018-11-25T23:00:30.091Z,36.47
2018-11-25T23:03:01.647Z,34.97
2018-11-25T23:07:06.865Z,36.00
2018-11-25T23:09:38.408Z,35.03
2018-11-25T23:12:09.862Z,35.87
2018-11-25T23:14:42.171Z,36.70
2018-11-25T23:17:12.824Z,35.23
2018-11-25T23:19:44.284Z,36.33
2018-11-25T23:22:15.777Z,35.30
2018-11-25T23:24:47.199Z,35.13
2018-11-25T23:27:18.706Z,35.03
2018-11-25T23:29:50.211Z,34.87
2018-11-25T23:32:21.688Z,34.57
2018-11-25T23:34:53.189Z,35.90
2018-11-25T23:37:24.703Z,35.43
2018-11-25T23:39:56.222Z,35.50
2018-11-25T23:42:27.726Z,36.10
2018-11-25T23:44:59.250Z,34.27
2018-11-25T23:47:31.240Z,33.93
2018-11-25T23:50:02.768Z,35.70
2018-11-25T23:52:34.262Z,36.53
2018-11-25T23:55:08.821Z,36.27
2018-11-25T23:57:40.841Z,34.90
